sensor_id;sensor_type;location;lat;lon;timestamp;temperature;humidity
66670;DHT22;53568;52.164;4.472;2022-08-25T00:01:44;24.36;77.28
66670;DHT22;53568;52.164;4.472;2022-08-25T00:04:13;24.36;77.27
66670;DHT22;53568;52.164;4.472;2022-08-25T00:06:42;24.31;77.52
66670;DHT22;53568;52.164;4.472;2022-08-25T00:09:10;24.28;77.49
66670;DHT22;53568;52.164;4.472;2022-08-25T00:11:37;24.31;77.36
66670;DHT22;53568;52.164;4.472;2022-08-25T00:14:08;24.26;77.35
66670;DHT22;53568;52.164;4.472;2022-08-25T00:16:34;24.28;77.41
66670;DHT22;53568;52.164;4.472;2022-08-25T00:19:05;24.25;77.26
66670;DHT22;53568;52.164;4.472;2022-08-25T00:21:32;24.15;77.56
66670;DHT22;53568;52.164;4.472;2022-08-25T00:24:00;24.15;77.51
66670;DHT22;53568;52.164;4.472;2022-08-25T00:26:27;24.12;77.63
66670;DHT22;53568;52.164;4.472;2022-08-25T00:28:53;24.08;77.70
66670;DHT22;53568;52.164;4.472;2022-08-25T00:31:20;24.04;77.83
66670;DHT22;53568;52.164;4.472;2022-08-25T00:33:49;24.07;77.77
66670;DHT22;53568;52.164;4.472;2022-08-25T00:36:17;24.04;77.57
66670;DHT22;53568;52.164;4.472;2022-08-25T00:38:46;24.04;77.60
66670;DHT22;53568;52.164;4.472;2022-08-25T00:41:18;24.05;77.51
66670;DHT22;53568;52.164;4.472;2022-08-25T00:43:50;24.04;77.58
66670;DHT22;53568;52.164;4.472;2022-08-25T00:46:29;24.07;77.24
66670;DHT22;53568;52.164;4.472;2022-08-25T00:49:03;24.00;77.32
66670;DHT22;53568;52.164;4.472;2022-08-25T00:51:41;24.01;77.07
66670;DHT22;53568;52.164;4.472;2022-08-25T00:54:14;23.97;77.22
66670;DHT22;53568;52.164;4.472;2022-08-25T00:56:42;23.93;77.16
66670;DHT22;53568;52.164;4.472;2022-08-25T00:59:09;23.80;77.24
66670;DHT22;53568;52.164;4.472;2022-08-25T01:01:34;23.93;77.08
66670;DHT22;53568;52.164;4.472;2022-08-25T01:04:00;23.90;77.04
66670;DHT22;53568;52.164;4.472;2022-08-25T01:06:27;23.94;76.88
66670;DHT22;53568;52.164;4.472;2022-08-25T01:08:55;23.97;76.81
66670;DHT22;53568;52.164;4.472;2022-08-25T01:11:21;24.04;76.49
66670;DHT22;53568;52.164;4.472;2022-08-25T01:13:52;24.01;76.27
66670;DHT22;53568;52.164;4.472;2022-08-25T01:16:18;24.05;76.11
66670;DHT22;53568;52.164;4.472;2022-08-25T01:18:50;24.04;76.10
66670;DHT22;53568;52.164;4.472;2022-08-25T01:21:19;24.10;75.81
66670;DHT22;53568;52.164;4.472;2022-08-25T01:23:46;24.07;75.71
66670;DHT22;53568;52.164;4.472;2022-08-25T01:26:17;24.08;75.77
66670;DHT22;53568;52.164;4.472;2022-08-25T01:28:46;24.05;75.74
66670;DHT22;53568;52.164;4.472;2022-08-25T01:31:32;23.97;75.92
66670;DHT22;53568;52.164;4.472;2022-08-25T01:33:58;24.05;75.65
66670;DHT22;53568;52.164;4.472;2022-08-25T01:36:26;24.11;75.47
66670;DHT22;53568;52.164;4.472;2022-08-25T01:38:52;24.08;75.57
66670;DHT22;53568;52.164;4.472;2022-08-25T01:41:39;24.10;75.42
66670;DHT22;53568;52.164;4.472;2022-08-25T01:44:06;23.98;75.79
66670;DHT22;53568;52.164;4.472;2022-08-25T01:46:32;24.02;75.66
66670;DHT22;53568;52.164;4.472;2022-08-25T01:49:00;23.98;75.82
66670;DHT22;53568;52.164;4.472;2022-08-25T01:51:28;23.97;75.82
66670;DHT22;53568;52.164;4.472;2022-08-25T01:53:57;24.00;75.69
66670;DHT22;53568;52.164;4.472;2022-08-25T01:56:22;24.00;75.67
66670;DHT22;53568;52.164;4.472;2022-08-25T01:58:48;24.00;75.71
66670;DHT22;53568;52.164;4.472;2022-08-25T02:01:17;23.97;75.75
66670;DHT22;53568;52.164;4.472;2022-08-25T02:03:47;24.00;75.79
66670;DHT22;53568;52.164;4.472;2022-08-25T02:06:24;24.04;75.57
66670;DHT22;53568;52.164;4.472;2022-08-25T02:08:54;24.10;75.56
66670;DHT22;53568;52.164;4.472;2022-08-25T02:11:20;24.10;75.40
66670;DHT22;53568;52.164;4.472;2022-08-25T02:13:47;24.15;75.11
66670;DHT22;53568;52.164;4.472;2022-08-25T02:16:26;24.12;75.27
66670;DHT22;53568;52.164;4.472;2022-08-25T02:18:53;24.14;75.27
66670;DHT22;53568;52.164;4.472;2022-08-25T02:21:19;24.18;75.23
66670;DHT22;53568;52.164;4.472;2022-08-25T02:23:45;24.21;75.21
66670;DHT22;53568;52.164;4.472;2022-08-25T02:26:11;24.26;75.11
66670;DHT22;53568;52.164;4.472;2022-08-25T02:28:36;24.32;74.75
66670;DHT22;53568;52.164;4.472;2022-08-25T02:31:05;24.32;74.75
66670;DHT22;53568;52.164;4.472;2022-08-25T02:33:30;24.28;74.80
66670;DHT22;53568;52.164;4.472;2022-08-25T02:36:00;24.26;74.92
66670;DHT22;53568;52.164;4.472;2022-08-25T02:38:27;24.22;74.99
66670;DHT22;53568;52.164;4.472;2022-08-25T02:40:57;24.22;74.97
66670;DHT22;53568;52.164;4.472;2022-08-25T02:43:24;24.20;74.83
66670;DHT22;53568;52.164;4.472;2022-08-25T02:45:51;24.10;74.81
66670;DHT22;53568;52.164;4.472;2022-08-25T02:48:17;24.01;74.80
66670;DHT22;53568;52.164;4.472;2022-08-25T02:50:48;24.02;74.79
66670;DHT22;53568;52.164;4.472;2022-08-25T02:53:18;24.00;74.69
66670;DHT22;53568;52.164;4.472;2022-08-25T02:55:46;23.97;74.48
66670;DHT22;53568;52.164;4.472;2022-08-25T02:58:16;23.98;74.81
66670;DHT22;53568;52.164;4.472;2022-08-25T03:00:44;23.91;74.65
66670;DHT22;53568;52.164;4.472;2022-08-25T03:03:11;24.00;74.34
66670;DHT22;53568;52.164;4.472;2022-08-25T03:05:38;24.04;74.05
66670;DHT22;53568;52.164;4.472;2022-08-25T03:08:10;24.01;73.76
66670;DHT22;53568;52.164;4.472;2022-08-25T03:10:36;24.00;73.70
66670;DHT22;53568;52.164;4.472;2022-08-25T03:13:05;23.96;73.76
66670;DHT22;53568;52.164;4.472;2022-08-25T03:15:31;23.91;74.04
66670;DHT22;53568;52.164;4.472;2022-08-25T03:17:57;23.91;73.89
66670;DHT22;53568;52.164;4.472;2022-08-25T03:20:25;23.97;73.87
66670;DHT22;53568;52.164;4.472;2022-08-25T03:22:55;24.00;73.03
66670;DHT22;53568;52.164;4.472;2022-08-25T03:25:23;24.00;72.91
66670;DHT22;53568;52.164;4.472;2022-08-25T03:28:17;23.94;73.08
66670;DHT22;53568;52.164;4.472;2022-08-25T03:30:43;23.93;72.61
66670;DHT22;53568;52.164;4.472;2022-08-25T03:33:10;23.88;72.81
66670;DHT22;53568;52.164;4.472;2022-08-25T03:35:35;23.78;72.92
66670;DHT22;53568;52.164;4.472;2022-08-25T03:38:03;23.73;73.01
66670;DHT22;53568;52.164;4.472;2022-08-25T03:40:32;23.73;72.77
66670;DHT22;53568;52.164;4.472;2022-08-25T03:43:00;23.64;72.82
66670;DHT22;53568;52.164;4.472;2022-08-25T03:45:26;23.56;72.85
66670;DHT22;53568;52.164;4.472;2022-08-25T03:47:53;23.58;72.95
66670;DHT22;53568;52.164;4.472;2022-08-25T03:50:21;23.61;72.59
66670;DHT22;53568;52.164;4.472;2022-08-25T03:53:03;23.66;72.29
66670;DHT22;53568;52.164;4.472;2022-08-25T03:55:28;23.64;71.99
66670;DHT22;53568;52.164;4.472;2022-08-25T03:57:54;23.63;71.78
66670;DHT22;53568;52.164;4.472;2022-08-25T04:00:23;23.71;71.64
66670;DHT22;53568;52.164;4.472;2022-08-25T04:02:49;23.74;71.18
66670;DHT22;53568;52.164;4.472;2022-08-25T04:05:18;23.77;71.22
66670;DHT22;53568;52.164;4.472;2022-08-25T04:07:45;23.78;70.83
66670;DHT22;53568;52.164;4.472;2022-08-25T04:10:11;23.80;70.51
66670;DHT22;53568;52.164;4.472;2022-08-25T04:12:38;23.85;70.02
66670;DHT22;53568;52.164;4.472;2022-08-25T04:15:08;23.82;70.06
66670;DHT22;53568;52.164;4.472;2022-08-25T04:17:37;23.81;69.70
66670;DHT22;53568;52.164;4.472;2022-08-25T04:20:07;23.78;69.76
66670;DHT22;53568;52.164;4.472;2022-08-25T04:22:34;23.78;69.50
66670;DHT22;53568;52.164;4.472;2022-08-25T04:25:00;23.75;69.69
66670;DHT22;53568;52.164;4.472;2022-08-25T04:27:26;23.77;69.02
66670;DHT22;53568;52.164;4.472;2022-08-25T04:29:52;23.71;69.10
66670;DHT22;53568;52.164;4.472;2022-08-25T04:32:19;23.68;68.95
66670;DHT22;53568;52.164;4.472;2022-08-25T04:34:45;23.71;68.86
66670;DHT22;53568;52.164;4.472;2022-08-25T04:37:16;23.73;68.54
66670;DHT22;53568;52.164;4.472;2022-08-25T04:39:42;23.78;68.02
66670;DHT22;53568;52.164;4.472;2022-08-25T04:42:09;23.77;68.24
66670;DHT22;53568;52.164;4.472;2022-08-25T04:44:36;23.82;67.98
66670;DHT22;53568;52.164;4.472;2022-08-25T04:47:02;23.90;67.68
66670;DHT22;53568;52.164;4.472;2022-08-25T04:49:28;23.94;67.23
66670;DHT22;53568;52.164;4.472;2022-08-25T04:51:54;23.97;66.99
66670;DHT22;53568;52.164;4.472;2022-08-25T04:54:21;23.94;66.93
66670;DHT22;53568;52.164;4.472;2022-08-25T04:56:50;23.97;66.93
66670;DHT22;53568;52.164;4.472;2022-08-25T04:59:17;24.02;66.66
66670;DHT22;53568;52.164;4.472;2022-08-25T05:01:44;24.05;66.47
66670;DHT22;53568;52.164;4.472;2022-08-25T05:04:14;24.04;65.82
66670;DHT22;53568;52.164;4.472;2022-08-25T05:06:41;24.10;65.91
66670;DHT22;53568;52.164;4.472;2022-08-25T05:09:08;24.15;65.77
66670;DHT22;53568;52.164;4.472;2022-08-25T05:11:34;24.28;65.33
66670;DHT22;53568;52.164;4.472;2022-08-25T05:14:01;24.31;64.67
66670;DHT22;53568;52.164;4.472;2022-08-25T05:16:27;24.35;64.66
66670;DHT22;53568;52.164;4.472;2022-08-25T05:18:53;24.41;63.90
66670;DHT22;53568;52.164;4.472;2022-08-25T05:21:22;24.44;63.65
66670;DHT22;53568;52.164;4.472;2022-08-25T05:23:49;24.49;62.90
66670;DHT22;53568;52.164;4.472;2022-08-25T05:26:19;24.51;62.72
66670;DHT22;53568;52.164;4.472;2022-08-25T05:28:57;24.54;62.69
66670;DHT22;53568;52.164;4.472;2022-08-25T05:34:55;24.56;61.41
66670;DHT22;53568;52.164;4.472;2022-08-25T05:37:26;24.58;61.66
66670;DHT22;53568;52.164;4.472;2022-08-25T05:39:52;24.61;61.65
66670;DHT22;53568;52.164;4.472;2022-08-25T05:42:24;24.64;61.35
66670;DHT22;53568;52.164;4.472;2022-08-25T05:44:51;24.65;61.30
66670;DHT22;53568;52.164;4.472;2022-08-25T05:47:18;24.68;61.61
66670;DHT22;53568;52.164;4.472;2022-08-25T05:49:47;24.66;60.36
66670;DHT22;53568;52.164;4.472;2022-08-25T05:52:16;24.68;61.16
66670;DHT22;53568;52.164;4.472;2022-08-25T05:54:42;24.72;60.71
66670;DHT22;53568;52.164;4.472;2022-08-25T05:57:08;24.69;60.81
66670;DHT22;53568;52.164;4.472;2022-08-25T05:59:36;24.71;60.54
66670;DHT22;53568;52.164;4.472;2022-08-25T06:02:02;24.72;60.36
66670;DHT22;53568;52.164;4.472;2022-08-25T06:04:46;24.71;60.44
66670;DHT22;53568;52.164;4.472;2022-08-25T06:07:12;24.64;60.16
66670;DHT22;53568;52.164;4.472;2022-08-25T06:09:39;24.61;60.83
66670;DHT22;53568;52.164;4.472;2022-08-25T06:12:06;24.59;59.48
66670;DHT22;53568;52.164;4.472;2022-08-25T06:14:32;24.55;59.76
66670;DHT22;53568;52.164;4.472;2022-08-25T06:16:59;24.48;59.87
66670;DHT22;53568;52.164;4.472;2022-08-25T06:19:26;24.44;60.53
66670;DHT22;53568;52.164;4.472;2022-08-25T06:21:56;24.42;60.11
66670;DHT22;53568;52.164;4.472;2022-08-25T06:24:24;24.47;59.94
66670;DHT22;53568;52.164;4.472;2022-08-25T06:26:50;24.41;60.15
66670;DHT22;53568;52.164;4.472;2022-08-25T06:29:17;24.36;59.92
66670;DHT22;53568;52.164;4.472;2022-08-25T06:31:44;24.38;60.01
66670;DHT22;53568;52.164;4.472;2022-08-25T06:34:12;24.39;59.85
66670;DHT22;53568;52.164;4.472;2022-08-25T06:36:39;24.42;59.74
66670;DHT22;53568;52.164;4.472;2022-08-25T06:39:05;24.45;59.75
66670;DHT22;53568;52.164;4.472;2022-08-25T06:41:31;24.49;60.08
66670;DHT22;53568;52.164;4.472;2022-08-25T06:43:57;24.59;59.50
66670;DHT22;53568;52.164;4.472;2022-08-25T06:46:25;24.59;59.00
66670;DHT22;53568;52.164;4.472;2022-08-25T06:48:53;24.62;59.77
66670;DHT22;53568;52.164;4.472;2022-08-25T06:51:28;24.68;58.82
66670;DHT22;53568;52.164;4.472;2022-08-25T06:53:55;24.76;58.62
66670;DHT22;53568;52.164;4.472;2022-08-25T06:56:24;24.82;58.94
66670;DHT22;53568;52.164;4.472;2022-08-25T06:58:52;24.86;58.38
66670;DHT22;53568;52.164;4.472;2022-08-25T07:01:21;24.90;58.51
66670;DHT22;53568;52.164;4.472;2022-08-25T07:07:18;25.00;57.88
66670;DHT22;53568;52.164;4.472;2022-08-25T07:09:44;25.09;57.86
66670;DHT22;53568;52.164;4.472;2022-08-25T07:12:09;25.20;57.39
66670;DHT22;53568;52.164;4.472;2022-08-25T07:14:38;25.27;57.03
66670;DHT22;53568;52.164;4.472;2022-08-25T07:17:07;25.33;56.79
66670;DHT22;53568;52.164;4.472;2022-08-25T07:19:32;25.37;56.85
66670;DHT22;53568;52.164;4.472;2022-08-25T07:22:01;25.56;56.49
66670;DHT22;53568;52.164;4.472;2022-08-25T07:24:27;25.69;56.08
66670;DHT22;53568;52.164;4.472;2022-08-25T07:26:55;25.73;56.60
66670;DHT22;53568;52.164;4.472;2022-08-25T07:29:27;25.83;56.10
66670;DHT22;53568;52.164;4.472;2022-08-25T07:32:06;25.84;55.36
66670;DHT22;53568;52.164;4.472;2022-08-25T07:34:54;25.94;55.44
66670;DHT22;53568;52.164;4.472;2022-08-25T07:37:38;25.98;55.36
66670;DHT22;53568;52.164;4.472;2022-08-25T07:43:55;26.08;54.38
66670;DHT22;53568;52.164;4.472;2022-08-25T07:49:43;26.18;53.31
66670;DHT22;53568;52.164;4.472;2022-08-25T07:52:19;26.29;53.27
66670;DHT22;53568;52.164;4.472;2022-08-25T07:58:15;26.31;53.19
66670;DHT22;53568;52.164;4.472;2022-08-25T08:00:47;26.45;52.90
66670;DHT22;53568;52.164;4.472;2022-08-25T08:07:08;26.61;52.95
66670;DHT22;53568;52.164;4.472;2022-08-25T08:09:33;26.67;52.51
66670;DHT22;53568;52.164;4.472;2022-08-25T08:15:42;26.81;51.75
66670;DHT22;53568;52.164;4.472;2022-08-25T08:28:38;26.79;51.83
66670;DHT22;53568;52.164;4.472;2022-08-25T08:55:25;27.26;50.26
66670;DHT22;53568;52.164;4.472;2022-08-25T09:05:08;27.50;50.00
66670;DHT22;53568;52.164;4.472;2022-08-25T09:36:02;28.66;46.80
66670;DHT22;53568;52.164;4.472;2022-08-25T09:38:41;28.69;46.06
66670;DHT22;53568;52.164;4.472;2022-08-25T09:45:00;29.00;44.69
66670;DHT22;53568;52.164;4.472;2022-08-25T09:47:28;29.12;44.07
66670;DHT22;53568;52.164;4.472;2022-08-25T09:53:38;29.40;42.57
66670;DHT22;53568;52.164;4.472;2022-08-25T10:00:12;29.70;42.58
66670;DHT22;53568;52.164;4.472;2022-08-25T10:03:18;29.87;41.32
66670;DHT22;53568;52.164;4.472;2022-08-25T10:10:01;30.07;41.77
66670;DHT22;53568;52.164;4.472;2022-08-25T10:19:26;30.34;39.42
66670;DHT22;53568;52.164;4.472;2022-08-25T10:25:37;30.35;39.11
66670;DHT22;53568;52.164;4.472;2022-08-25T10:48:08;31.08;37.79
66670;DHT22;53568;52.164;4.472;2022-08-25T11:04:31;31.53;36.41
66670;DHT22;53568;52.164;4.472;2022-08-25T11:07:22;31.51;36.55
66670;DHT22;53568;52.164;4.472;2022-08-25T11:10:07;31.56;36.03
66670;DHT22;53568;52.164;4.472;2022-08-25T11:19:16;31.50;36.22
66670;DHT22;53568;52.164;4.472;2022-08-25T11:22:11;31.56;35.91
66670;DHT22;53568;52.164;4.472;2022-08-25T11:31:09;31.80;35.18
66670;DHT22;53568;52.164;4.472;2022-08-25T11:33:47;31.82;35.52
66670;DHT22;53568;52.164;4.472;2022-08-25T11:36:53;31.83;35.83
66670;DHT22;53568;52.164;4.472;2022-08-25T11:43:13;31.96;34.42
66670;DHT22;53568;52.164;4.472;2022-08-25T11:51:50;32.00;35.01
66670;DHT22;53568;52.164;4.472;2022-08-25T11:57:46;31.72;36.44
66670;DHT22;53568;52.164;4.472;2022-08-25T12:00:36;31.69;36.12
66670;DHT22;53568;52.164;4.472;2022-08-25T12:06:24;31.60;38.05
66670;DHT22;53568;52.164;4.472;2022-08-25T12:09:26;31.43;38.08
66670;DHT22;53568;52.164;4.472;2022-08-25T12:18:39;31.28;39.83
66670;DHT22;53568;52.164;4.472;2022-08-25T12:24:09;30.86;41.70
66670;DHT22;53568;52.164;4.472;2022-08-25T12:27:00;30.92;41.03
66670;DHT22;53568;52.164;4.472;2022-08-25T12:39:00;30.94;42.67
66670;DHT22;53568;52.164;4.472;2022-08-25T12:41:32;30.74;43.27
66670;DHT22;53568;52.164;4.472;2022-08-25T12:44:53;30.58;43.36
66670;DHT22;53568;52.164;4.472;2022-08-25T12:47:46;30.45;44.67
66670;DHT22;53568;52.164;4.472;2022-08-25T12:50:39;30.31;45.10
66670;DHT22;53568;52.164;4.472;2022-08-25T12:53:43;30.32;45.70
66670;DHT22;53568;52.164;4.472;2022-08-25T13:12:17;29.91;50.88
66670;DHT22;53568;52.164;4.472;2022-08-25T13:14:57;29.97;50.88
66670;DHT22;53568;52.164;4.472;2022-08-25T13:17:45;29.76;51.63
66670;DHT22;53568;52.164;4.472;2022-08-25T13:20:25;29.60;52.29
66670;DHT22;53568;52.164;4.472;2022-08-25T13:22:59;29.52;52.24
66670;DHT22;53568;52.164;4.472;2022-08-25T13:32:11;29.66;53.12
66670;DHT22;53568;52.164;4.472;2022-08-25T13:34:48;29.59;53.39
66670;DHT22;53568;52.164;4.472;2022-08-25T13:37:18;29.52;53.54
66670;DHT22;53568;52.164;4.472;2022-08-25T13:40:13;29.39;53.09
66670;DHT22;53568;52.164;4.472;2022-08-25T13:42:59;29.30;54.14
66670;DHT22;53568;52.164;4.472;2022-08-25T13:45:31;29.32;55.00
66670;DHT22;53568;52.164;4.472;2022-08-25T13:51:53;29.43;54.05
66670;DHT22;53568;52.164;4.472;2022-08-25T13:54:43;29.22;55.22
66670;DHT22;53568;52.164;4.472;2022-08-25T13:57:22;29.22;54.30
66670;DHT22;53568;52.164;4.472;2022-08-25T14:00:01;29.26;54.60
66670;DHT22;53568;52.164;4.472;2022-08-25T14:02:49;29.22;54.66
66670;DHT22;53568;52.164;4.472;2022-08-25T14:05:48;29.18;54.32
66670;DHT22;53568;52.164;4.472;2022-08-25T14:09:14;29.12;54.84
66670;DHT22;53568;52.164;4.472;2022-08-25T14:11:56;28.98;56.00
66670;DHT22;53568;52.164;4.472;2022-08-25T14:20:21;28.91;57.34
66670;DHT22;53568;52.164;4.472;2022-08-25T14:26:40;29.08;56.18
66670;DHT22;53568;52.164;4.472;2022-08-25T14:36:18;28.88;57.34
66670;DHT22;53568;52.164;4.472;2022-08-25T14:42:13;28.38;59.72
66670;DHT22;53568;52.164;4.472;2022-08-25T14:44:41;28.20;61.20
66670;DHT22;53568;52.164;4.472;2022-08-25T14:47:06;28.11;61.70
66670;DHT22;53568;52.164;4.472;2022-08-25T14:49:48;27.61;62.70
66670;DHT22;53568;52.164;4.472;2022-08-25T14:56:08;27.27;65.03
66670;DHT22;53568;52.164;4.472;2022-08-25T15:01:55;26.83;66.58
66670;DHT22;53568;52.164;4.472;2022-08-25T15:07:58;26.72;67.87
66670;DHT22;53568;52.164;4.472;2022-08-25T15:14:36;26.52;67.66
66670;DHT22;53568;52.164;4.472;2022-08-25T15:20:31;25.59;70.50
66670;DHT22;53568;52.164;4.472;2022-08-25T15:39:21;25.15;72.52
66670;DHT22;53568;52.164;4.472;2022-08-25T15:45:08;24.49;74.16
66670;DHT22;53568;52.164;4.472;2022-08-25T15:47:34;24.55;74.01
66670;DHT22;53568;52.164;4.472;2022-08-25T15:56:48;24.34;74.80
66670;DHT22;53568;52.164;4.472;2022-08-25T16:02:44;24.26;74.33
66670;DHT22;53568;52.164;4.472;2022-08-25T16:05:13;24.36;74.05
66670;DHT22;53568;52.164;4.472;2022-08-25T16:11:23;24.18;74.25
66670;DHT22;53568;52.164;4.472;2022-08-25T16:17:51;24.20;74.80
66670;DHT22;53568;52.164;4.472;2022-08-25T16:24:13;24.32;74.51
66670;DHT22;53568;52.164;4.472;2022-08-25T16:30:00;24.42;74.07
66670;DHT22;53568;52.164;4.472;2022-08-25T16:47:02;24.14;75.18
66670;DHT22;53568;52.164;4.472;2022-08-25T16:49:53;24.25;74.49
66670;DHT22;53568;52.164;4.472;2022-08-25T16:56:12;23.91;75.68
66670;DHT22;53568;52.164;4.472;2022-08-25T17:02:07;23.97;75.41
66670;DHT22;53568;52.164;4.472;2022-08-25T17:04:36;23.85;75.77
66670;DHT22;53568;52.164;4.472;2022-08-25T17:10:34;23.60;77.31
66670;DHT22;53568;52.164;4.472;2022-08-25T17:16:43;23.12;79.30
66670;DHT22;53568;52.164;4.472;2022-08-25T17:30:24;23.00;79.83
66670;DHT22;53568;52.164;4.472;2022-08-25T17:47:35;23.06;79.36
66670;DHT22;53568;52.164;4.472;2022-08-25T17:50:04;22.98;79.61
66670;DHT22;53568;52.164;4.472;2022-08-25T17:52:29;22.82;79.95
66670;DHT22;53568;52.164;4.472;2022-08-25T17:54:56;22.62;80.79
66670;DHT22;53568;52.164;4.472;2022-08-25T18:00:44;22.09;82.27
66670;DHT22;53568;52.164;4.472;2022-08-25T18:03:11;22.16;82.27
66670;DHT22;53568;52.164;4.472;2022-08-25T18:05:37;22.16;82.11
66670;DHT22;53568;52.164;4.472;2022-08-25T18:08:05;22.04;82.47
66670;DHT22;53568;52.164;4.472;2022-08-25T18:14:01;22.31;81.56
66670;DHT22;53568;52.164;4.472;2022-08-25T18:19:52;22.32;81.12
66670;DHT22;53568;52.164;4.472;2022-08-25T18:26:08;22.24;81.33
66670;DHT22;53568;52.164;4.472;2022-08-25T18:28:34;22.09;81.69
66670;DHT22;53568;52.164;4.472;2022-08-25T18:31:00;22.12;81.79
66670;DHT22;53568;52.164;4.472;2022-08-25T18:33:29;22.19;81.50
66670;DHT22;53568;52.164;4.472;2022-08-25T18:35:56;22.28;80.83
66670;DHT22;53568;52.164;4.472;2022-08-25T18:41:51;22.08;81.60
66670;DHT22;53568;52.164;4.472;2022-08-25T18:48:08;22.06;81.51
66670;DHT22;53568;52.164;4.472;2022-08-25T18:50:41;21.97;82.11
66670;DHT22;53568;52.164;4.472;2022-08-25T18:53:09;22.04;81.99
66670;DHT22;53568;52.164;4.472;2022-08-25T18:55:36;21.90;82.41
66670;DHT22;53568;52.164;4.472;2022-08-25T18:58:06;21.85;82.92
66670;DHT22;53568;52.164;4.472;2022-08-25T19:03:59;21.90;83.31
66670;DHT22;53568;52.164;4.472;2022-08-25T19:09:46;21.78;83.26
66670;DHT22;53568;52.164;4.472;2022-08-25T19:15:41;21.84;83.02
66670;DHT22;53568;52.164;4.472;2022-08-25T19:21:36;21.77;82.89
66670;DHT22;53568;52.164;4.472;2022-08-25T19:27:35;21.67;82.96
66670;DHT22;53568;52.164;4.472;2022-08-25T19:30:03;21.65;82.78
66670;DHT22;53568;52.164;4.472;2022-08-25T19:32:29;21.60;83.15
66670;DHT22;53568;52.164;4.472;2022-08-25T19:34:55;21.77;82.74
66670;DHT22;53568;52.164;4.472;2022-08-25T19:41:04;21.85;82.13
66670;DHT22;53568;52.164;4.472;2022-08-25T19:43:31;21.91;81.99
66670;DHT22;53568;52.164;4.472;2022-08-25T19:45:59;21.82;82.42
66670;DHT22;53568;52.164;4.472;2022-08-25T19:48:28;21.88;82.19
66670;DHT22;53568;52.164;4.472;2022-08-25T19:50:53;21.85;81.64
66670;DHT22;53568;52.164;4.472;2022-08-25T19:53:22;21.82;81.20
66670;DHT22;53568;52.164;4.472;2022-08-25T19:55:48;21.77;80.68
66670;DHT22;53568;52.164;4.472;2022-08-25T19:58:17;21.73;80.74
66670;DHT22;53568;52.164;4.472;2022-08-25T20:00:43;21.68;80.92
66670;DHT22;53568;52.164;4.472;2022-08-25T20:03:12;21.71;80.79
66670;DHT22;53568;52.164;4.472;2022-08-25T20:05:38;21.73;80.77
66670;DHT22;53568;52.164;4.472;2022-08-25T20:08:06;21.75;80.52
66670;DHT22;53568;52.164;4.472;2022-08-25T20:10:34;21.73;80.88
66670;DHT22;53568;52.164;4.472;2022-08-25T20:13:01;21.64;80.76
66670;DHT22;53568;52.164;4.472;2022-08-25T20:15:30;21.71;80.79
66670;DHT22;53568;52.164;4.472;2022-08-25T20:17:57;21.75;80.28
66670;DHT22;53568;52.164;4.472;2022-08-25T20:20:24;21.78;80.12
66670;DHT22;53568;52.164;4.472;2022-08-25T20:22:53;21.80;80.26
66670;DHT22;53568;52.164;4.472;2022-08-25T20:25:41;21.77;80.14
66670;DHT22;53568;52.164;4.472;2022-08-25T20:28:13;21.64;80.30
66670;DHT22;53568;52.164;4.472;2022-08-25T20:30:42;21.49;80.90
66670;DHT22;53568;52.164;4.472;2022-08-25T20:36:34;21.51;81.06
66670;DHT22;53568;52.164;4.472;2022-08-25T20:39:03;21.54;81.13
66670;DHT22;53568;52.164;4.472;2022-08-25T20:41:29;21.55;80.81
66670;DHT22;53568;52.164;4.472;2022-08-25T20:43:58;21.47;80.73
66670;DHT22;53568;52.164;4.472;2022-08-25T20:46:24;21.55;80.56
66670;DHT22;53568;52.164;4.472;2022-08-25T20:48:53;21.43;80.95
66670;DHT22;53568;52.164;4.472;2022-08-25T20:51:19;21.43;81.20
66670;DHT22;53568;52.164;4.472;2022-08-25T20:53:49;21.47;80.89
66670;DHT22;53568;52.164;4.472;2022-08-25T20:56:17;21.47;80.85
66670;DHT22;53568;52.164;4.472;2022-08-25T20:58:43;21.26;81.53
66670;DHT22;53568;52.164;4.472;2022-08-25T21:01:25;21.30;81.65
66670;DHT22;53568;52.164;4.472;2022-08-25T21:04:28;21.26;81.33
66670;DHT22;53568;52.164;4.472;2022-08-25T21:06:54;21.16;81.36
66670;DHT22;53568;52.164;4.472;2022-08-25T21:09:23;21.20;81.34
66670;DHT22;53568;52.164;4.472;2022-08-25T21:11:51;21.23;81.17
66670;DHT22;53568;52.164;4.472;2022-08-25T21:14:41;21.37;80.57
66670;DHT22;53568;52.164;4.472;2022-08-25T21:17:13;21.37;80.72
66670;DHT22;53568;52.164;4.472;2022-08-25T21:19:49;21.34;81.03
66670;DHT22;53568;52.164;4.472;2022-08-25T21:22:15;21.10;81.15
66670;DHT22;53568;52.164;4.472;2022-08-25T21:24:42;21.02;81.19
66670;DHT22;53568;52.164;4.472;2022-08-25T21:27:11;21.03;81.06
66670;DHT22;53568;52.164;4.472;2022-08-25T21:29:37;21.00;81.25
66670;DHT22;53568;52.164;4.472;2022-08-25T21:32:05;20.99;81.30
66670;DHT22;53568;52.164;4.472;2022-08-25T21:34:34;21.02;81.32
66670;DHT22;53568;52.164;4.472;2022-08-25T21:37:00;20.97;81.40
66670;DHT22;53568;52.164;4.472;2022-08-25T21:39:28;20.90;81.49
66670;DHT22;53568;52.164;4.472;2022-08-25T21:41:56;20.89;81.39
66670;DHT22;53568;52.164;4.472;2022-08-25T21:44:23;21.02;81.11
66670;DHT22;53568;52.164;4.472;2022-08-25T21:46:51;20.95;81.20
66670;DHT22;53568;52.164;4.472;2022-08-25T21:49:17;20.85;81.70
66670;DHT22;53568;52.164;4.472;2022-08-25T21:51:44;20.82;81.60
66670;DHT22;53568;52.164;4.472;2022-08-25T21:54:13;20.80;81.86
66670;DHT22;53568;52.164;4.472;2022-08-25T21:57:01;20.87;81.68
66670;DHT22;53568;52.164;4.472;2022-08-25T21:59:34;21.02;81.27
66670;DHT22;53568;52.164;4.472;2022-08-25T22:02:03;21.03;81.18
66670;DHT22;53568;52.164;4.472;2022-08-25T22:04:37;20.97;80.97
66670;DHT22;53568;52.164;4.472;2022-08-25T22:07:05;21.02;80.70
66670;DHT22;53568;52.164;4.472;2022-08-25T22:09:32;20.96;80.68
66670;DHT22;53568;52.164;4.472;2022-08-25T22:12:01;21.07;80.14
66670;DHT22;53568;52.164;4.472;2022-08-25T22:14:28;20.99;80.29
66670;DHT22;53568;52.164;4.472;2022-08-25T22:16:55;20.92;80.57
66670;DHT22;53568;52.164;4.472;2022-08-25T22:19:23;20.96;80.59
66670;DHT22;53568;52.164;4.472;2022-08-25T22:21:53;21.00;80.53
66670;DHT22;53568;52.164;4.472;2022-08-25T22:24:20;21.06;80.13
66670;DHT22;53568;52.164;4.472;2022-08-25T22:26:46;21.04;80.26
66670;DHT22;53568;52.164;4.472;2022-08-25T22:29:16;21.07;80.17
66670;DHT22;53568;52.164;4.472;2022-08-25T22:31:43;20.99;80.47
66670;DHT22;53568;52.164;4.472;2022-08-25T22:34:09;20.99;80.63
66670;DHT22;53568;52.164;4.472;2022-08-25T22:36:39;20.85;80.92
66670;DHT22;53568;52.164;4.472;2022-08-25T22:39:06;20.96;80.88
66670;DHT22;53568;52.164;4.472;2022-08-25T22:41:32;21.03;80.55
66670;DHT22;53568;52.164;4.472;2022-08-25T22:44:02;21.10;80.50
66670;DHT22;53568;52.164;4.472;2022-08-25T22:46:28;21.08;80.10